Portada
METAR-TAF:

METAR-TAF

Aeropuertos :

Wakkanai, Japón

latitud: 45-24N, longitud: 141-48E, altitud: 8 m

Observación

El informe se hizo hace 12 horas y 10 minutos, a las 09:00 UTC
Viento 4 kt del norte-noreste
Temperatura 20°C
Humedad 78%
Presión 1015 hPa
Visibilidad 10 km o más
Escasas nubes a una altura de 2000 ft

METAR: RJCW 150900Z 02004KT 9999 FEW020 20/16 Q1015

Hora: 06:10 (21:10 UTC)


TAF: falta

Observaciones y pronósticos meteorológicos de más de 4000 aeropuertos (mensajes METAR y TAF).

Los puntos amarillos y rojos representan las estaciones disponibles.

Ponga el ratón en el punto deseado para ver el nombre de la estación.

Haga clic para ver las observaciones y los pronósticos meteorológicos.

Para cambiar el mapa : haga clic en los botones verdes con una cruz de color negro para hacer un zoom, en el botón verde con un guión para alejar o en las flechas verdes para mapas adyacentes.


METAR-TAF: